createdAt,value
2023-02-04T00:05:05.537Z,52.80
2023-02-04T00:10:20.648Z,52.60
2023-02-04T00:15:35.586Z,53.10
2023-02-04T00:20:50.628Z,53.30
2023-02-04T00:26:05.572Z,53.10
2023-02-04T00:31:20.908Z,53.00
2023-02-04T00:36:36.511Z,53.40
2023-02-04T00:41:52.567Z,53.30
2023-02-04T00:47:07.595Z,53.20
2023-02-04T00:52:22.574Z,53.70
2023-02-04T00:57:37.533Z,54.40
2023-02-04T01:02:52.921Z,54.10
2023-02-04T01:08:08.535Z,53.80
2023-02-04T01:13:23.880Z,54.40
2023-02-04T01:18:39.516Z,54.20
2023-02-04T01:23:54.622Z,54.00
2023-02-04T01:29:09.662Z,53.80
2023-02-04T01:34:25.580Z,54.20
2023-02-04T01:39:40.562Z,54.30
2023-02-04T01:44:55.915Z,54.30
2023-02-04T01:50:11.559Z,54.20
2023-02-04T01:55:26.517Z,54.00
2023-02-04T02:00:41.943Z,53.80
2023-02-04T02:05:57.561Z,53.70
2023-02-04T02:11:12.526Z,53.40
2023-02-04T02:16:28.058Z,53.50
2023-02-04T02:21:44.833Z,53.60
2023-02-04T02:27:00.608Z,53.40
2023-02-04T02:32:15.575Z,53.20
2023-02-04T02:37:30.937Z,53.00
2023-02-04T02:42:47.299Z,53.10
2023-02-04T02:48:02.552Z,53.00
2023-02-04T02:53:17.554Z,52.80
2023-02-04T02:58:32.587Z,52.90
2023-02-04T03:03:48.548Z,53.20
2023-02-04T03:09:03.570Z,53.10
2023-02-04T03:14:19.608Z,52.90
2023-02-04T03:19:35.523Z,53.00
2023-02-04T03:24:50.298Z,52.90
2023-02-04T03:30:05.582Z,52.90
2023-02-04T03:35:20.517Z,53.10
2023-02-04T03:40:35.565Z,53.10
2023-02-04T03:45:50.536Z,53.00
2023-02-04T03:51:05.534Z,53.20
2023-02-04T03:56:20.590Z,53.10
2023-02-04T04:01:35.546Z,53.30
2023-02-04T04:06:50.531Z,53.20
2023-02-04T04:12:05.587Z,53.50
2023-02-04T04:17:20.871Z,53.30
2023-02-04T04:22:36.565Z,53.30
2023-02-04T04:27:51.550Z,53.60
2023-02-04T04:33:06.584Z,53.10
2023-02-04T04:38:21.594Z,53.10
2023-02-04T04:43:36.538Z,53.10
2023-02-04T04:48:51.551Z,52.90
2023-02-04T04:54:06.897Z,52.90
2023-02-04T04:59:22.855Z,53.50
2023-02-04T05:04:38.598Z,53.00
2023-02-04T05:09:53.596Z,53.40
2023-02-04T05:15:08.314Z,52.80
2023-02-04T05:20:23.772Z,52.90
2023-02-04T05:25:39.887Z,53.40
2023-02-04T05:30:55.597Z,52.90
2023-02-04T05:36:10.548Z,52.90
2023-02-04T05:41:25.589Z,52.90
2023-02-04T05:46:40.558Z,53.30
2023-02-04T05:51:55.313Z,52.90
2023-02-04T05:57:10.549Z,52.90
2023-02-04T06:02:25.580Z,53.20
2023-02-04T06:07:40.609Z,53.40
2023-02-04T06:12:55.676Z,53.80
2023-02-04T06:18:10.900Z,53.40
2023-02-04T06:23:26.613Z,53.30
2023-02-04T06:28:41.622Z,53.20
2023-02-04T06:33:56.583Z,52.80
2023-02-04T06:39:11.848Z,53.40
2023-02-04T06:44:27.570Z,53.30
2023-02-04T06:49:42.535Z,52.90
2023-02-04T06:54:57.561Z,52.50
2023-02-04T07:00:12.575Z,52.50
2023-02-04T07:05:27.570Z,52.30
2023-02-04T07:10:42.557Z,52.20
2023-02-04T07:15:57.644Z,52.20
2023-02-04T07:21:12.661Z,54.50
2023-02-04T07:26:28.589Z,55.10
2023-02-04T07:31:43.787Z,55.90
2023-02-04T07:36:58.679Z,56.00
2023-02-04T07:42:13.543Z,55.90
2023-02-04T07:47:35.541Z,56.00
2023-02-04T07:52:50.549Z,56.40
2023-02-04T07:58:05.535Z,56.50
2023-02-04T08:03:20.644Z,56.40
2023-02-04T08:08:35.597Z,56.20
2023-02-04T08:13:51.637Z,56.10
2023-02-04T08:19:06.657Z,56.00
2023-02-04T08:24:21.600Z,55.90
2023-02-04T08:29:36.573Z,55.60
2023-02-04T08:34:51.572Z,55.40
2023-02-04T08:40:06.558Z,55.20
2023-02-04T08:45:21.752Z,54.90
2023-02-04T08:50:39.080Z,54.90
2023-02-04T08:55:54.346Z,54.80
2023-02-04T09:01:10.985Z,54.60
2023-02-04T09:06:26.541Z,54.40
2023-02-04T09:11:41.599Z,54.30
2023-02-04T09:16:56.568Z,54.00
2023-02-04T09:22:11.953Z,53.80
2023-02-04T09:27:27.435Z,53.70
2023-02-04T09:32:42.961Z,53.30
2023-02-04T09:37:58.573Z,53.10
2023-02-04T09:43:13.628Z,52.90
2023-02-04T09:48:28.645Z,52.70
2023-02-04T09:53:43.950Z,52.70
2023-02-04T09:58:59.692Z,52.40
2023-02-04T10:04:14.607Z,52.20
2023-02-04T10:09:29.603Z,52.10
2023-02-04T10:14:44.631Z,51.90
2023-02-04T10:19:59.622Z,51.80
2023-02-04T10:25:14.680Z,51.70
2023-02-04T10:30:29.869Z,51.60
2023-02-04T10:35:45.621Z,51.60
2023-02-04T10:41:00.568Z,51.50
2023-02-04T10:46:15.396Z,51.40
2023-02-04T10:51:30.621Z,51.30
2023-02-04T10:56:45.898Z,51.10
2023-02-04T11:02:01.616Z,51.00
2023-02-04T11:07:16.627Z,50.90
2023-02-04T11:12:31.935Z,50.80
2023-02-04T11:17:47.575Z,50.70
2023-02-04T11:23:02.595Z,50.50
2023-02-04T11:28:17.673Z,50.40
2023-02-04T11:33:32.397Z,50.30
2023-02-04T11:38:47.367Z,50.20
2023-02-04T11:44:02.655Z,50.20
2023-02-04T11:49:17.618Z,50.20
2023-02-04T11:54:32.554Z,50.20
2023-02-04T11:59:47.599Z,50.00
2023-02-04T12:05:02.714Z,50.00
2023-02-04T12:10:17.693Z,50.10
2023-02-04T12:15:32.699Z,50.00
2023-02-04T12:20:48.911Z,49.70
2023-02-04T12:26:04.615Z,49.60
2023-02-04T12:31:19.739Z,49.60
2023-02-04T12:36:34.579Z,49.40
2023-02-04T12:41:49.410Z,49.40
2023-02-04T12:47:04.636Z,49.40
2023-02-04T12:52:19.620Z,49.20
2023-02-04T12:57:34.924Z,48.90
2023-02-04T13:02:51.059Z,48.60
2023-02-04T13:08:06.592Z,48.70
2023-02-04T13:13:21.557Z,48.70
2023-02-04T13:18:36.335Z,48.80
2023-02-04T13:23:51.904Z,48.90
2023-02-04T13:29:07.957Z,48.90
2023-02-04T13:34:23.603Z,48.90
2023-02-04T13:39:38.612Z,49.00
2023-02-04T13:44:53.968Z,49.00
2023-02-04T13:50:09.707Z,48.80
2023-02-04T13:55:25.015Z,48.80
2023-02-04T14:00:40.973Z,48.80
2023-02-04T14:05:56.596Z,48.80
2023-02-04T14:11:11.622Z,48.70
2023-02-04T14:16:26.615Z,48.60
2023-02-04T14:21:41.684Z,48.50
2023-02-04T14:27:34.676Z,48.50
2023-02-04T14:32:49.619Z,48.40
2023-02-04T14:38:04.380Z,48.40
2023-02-04T14:43:19.607Z,48.40
2023-02-04T14:48:34.359Z,48.40
2023-02-04T14:53:49.614Z,48.40
2023-02-04T14:59:04.553Z,48.50
2023-02-04T15:04:19.658Z,48.50
2023-02-04T15:09:34.565Z,48.50
2023-02-04T15:14:49.957Z,48.60
2023-02-04T15:20:05.598Z,48.50
2023-02-04T15:25:20.349Z,48.70
2023-02-04T15:30:35.996Z,48.70
2023-02-04T15:35:51.998Z,48.80
2023-02-04T15:41:07.907Z,48.80
2023-02-04T15:46:23.754Z,48.80
2023-02-04T15:51:38.688Z,48.70
2023-02-04T15:56:53.352Z,48.60
2023-02-04T16:02:08.363Z,48.50
2023-02-04T16:07:23.661Z,48.60
2023-02-04T16:12:39.084Z,48.50
2023-02-04T16:17:54.681Z,48.40
2023-02-04T16:23:09.583Z,48.40
2023-02-04T16:28:25.368Z,48.40
2023-02-04T16:33:40.646Z,48.40
2023-02-04T16:38:55.592Z,48.60
2023-02-04T16:44:10.622Z,48.50
2023-02-04T16:49:25.566Z,48.50
2023-02-04T16:54:40.641Z,48.70
2023-02-04T16:59:55.861Z,48.60
2023-02-04T17:05:11.654Z,48.60
2023-02-04T17:10:26.646Z,48.60
2023-02-04T17:15:41.946Z,48.70
2023-02-04T17:20:58.016Z,48.70
2023-02-04T17:26:13.605Z,49.10
2023-02-04T17:31:28.675Z,49.30
2023-02-04T17:36:43.596Z,49.30
2023-02-04T17:41:58.567Z,49.50
2023-02-04T17:47:13.637Z,49.50
2023-02-04T17:52:28.603Z,49.50
2023-02-04T17:57:43.642Z,49.30
2023-02-04T18:02:58.960Z,49.40
2023-02-04T18:08:14.663Z,49.40
2023-02-04T18:13:29.628Z,49.40
2023-02-04T18:18:44.649Z,49.30
2023-02-04T18:24:01.188Z,49.30
2023-02-04T18:29:16.723Z,49.50
2023-02-04T18:34:31.658Z,49.70
2023-02-04T18:39:46.662Z,49.80
2023-02-04T18:45:01.599Z,49.90
2023-02-04T18:50:16.668Z,49.90
2023-02-04T18:55:32.637Z,49.80
2023-02-04T19:00:47.671Z,49.80
2023-02-04T19:06:02.649Z,49.80
2023-02-04T19:11:17.700Z,49.80
2023-02-04T19:16:32.687Z,49.80
2023-02-04T19:21:47.925Z,49.90
2023-02-04T19:27:03.630Z,49.40
2023-02-04T19:32:18.605Z,49.90
2023-02-04T19:37:33.896Z,52.70
2023-02-04T19:42:50.080Z,54.40
2023-02-04T19:48:05.636Z,55.30
2023-02-04T19:53:20.708Z,55.40
2023-02-04T19:58:36.612Z,55.80
2023-02-04T20:03:51.644Z,55.90
2023-02-04T20:09:06.620Z,56.00
2023-02-04T20:14:21.597Z,55.90
2023-02-04T20:19:36.748Z,55.90
2023-02-04T20:24:51.656Z,55.90
2023-02-04T20:30:06.580Z,55.70
2023-02-04T20:35:21.646Z,55.80
2023-02-04T20:40:36.413Z,55.80
2023-02-04T20:45:51.748Z,55.80
2023-02-04T20:51:08.108Z,55.70
2023-02-04T20:56:23.641Z,55.80
2023-02-04T21:01:38.788Z,55.70
2023-02-04T21:06:53.674Z,55.80
2023-02-04T21:12:08.696Z,55.90
2023-02-04T21:17:23.684Z,56.10
2023-02-04T21:22:38.923Z,56.20
2023-02-04T21:27:54.731Z,56.40
2023-02-04T21:33:09.631Z,56.50
2023-02-04T21:38:25.059Z,56.70
2023-02-04T21:43:40.641Z,57.00
2023-02-04T21:48:56.087Z,57.30
2023-02-04T21:54:11.606Z,58.00
2023-02-04T21:59:26.396Z,58.40
2023-02-04T22:04:41.675Z,58.30
2023-02-04T22:09:56.617Z,58.20
2023-02-04T22:15:11.615Z,58.10
2023-02-04T22:20:26.616Z,58.30
2023-02-04T22:25:41.644Z,58.40
2023-02-04T22:30:57.061Z,58.50
2023-02-04T22:36:12.654Z,58.70
2023-02-04T22:41:27.370Z,59.40
2023-02-04T22:46:42.698Z,59.40
2023-02-04T22:51:57.690Z,59.40
2023-02-04T22:57:12.632Z,59.30
2023-02-04T23:02:27.642Z,59.60
2023-02-04T23:07:42.964Z,59.70
2023-02-04T23:12:58.673Z,59.50
2023-02-04T23:18:13.697Z,59.60
2023-02-04T23:23:28.654Z,59.70
2023-02-04T23:28:43.613Z,60.10
2023-02-04T23:33:58.613Z,60.60
2023-02-04T23:39:13.662Z,59.70
2023-02-04T23:44:29.016Z,59.80
2023-02-04T23:49:44.935Z,59.60
2023-02-04T23:55:00.711Z,59.50
